메인 페이지
METAR-TAF:

METAR-TAF

공항 :

아르한겔스크, 러시아

위도: 64-30N, 경도: 040-44E, 고도: 13m

현재 날씨관측

예보는 26분 전, 15:00시(UTC)에 발표되었습니다.
여러 방향의 바람 2kt
온도 -9°C
습도 92%
기압 1015 hPa
시정 10km 이상
고도 3000ft 상공 구름 보통

METAR: ULAA 111500Z VRB01MPS 9999 SCT030 M09/M10 Q1015 R26/490143 NOSIG RMK QFE760/1014

시각: 18:26 (15:26 UTC)

예보

예보는 1 시간 27분 전, 13:59시(UTC)에 발표되었습니다.
예보 대상 시간: 11일 15시부터 12일 15시까지 (UTC)
6kt
시정: 6000m
고도 1200ft 상공 구름 많음
일시적
11일 15시부터 11일 19시까지 (UTC)
남서6kt, 순간 최대 풍속 16kt
시정: 1000m
고도 300ft 상공 구름 많음
고도 1100ft 상공 구름 많음
눈, 박무
일시적
11일 19시부터 12일 15시까지 (UTC)
8kt, 순간 최대 풍속 23kt
시정: 3100m
고도 1100ft 상공 구름 많음
약한눈

TAF: ULAA 111359Z 1115/1215 19003MPS 6000 BKN012 TEMPO 1115/1119 23003G08MPS 1000 SN BR BKN003 BKN011 TEMPO 1119/1215 17004G12MPS 3100 -SN BKN011

4,000개 이상의 공항 관측 자료 및 예보 (METAR 및 TAF 보고).

지도상에서 검색 가능한 기상관측소가 노란 점과 빨간 점으로 표시되어 있습니다.

기상관측소 명을 보려면 표시 위로 마우스를 이동하세요.

날씨 관측과 예보를 보려면 클릭하세요.

지도 변경 : 확대하려면 엑스 표시가 있는 녹색 버튼, 축소하려면 빼기 표시가 있는 녹색 버튼, 다음 페이지의 지도를 보려면 녹색 화살표를 클릭하세요.


METAR-TAF: